Time;durP1;ratioP1;P1;durP2;ratioP2;P2;SDS_P1;SDS_P2;PMS_P1;PMS_P2;Temp;Humidity;BMP_temperature;BMP_pressure;BME280_temperature;BME280_humidity;BME280_pressure;Samples;Min_cycle;Max_cycle;Signal;HPM_P1;HPM_P2
2023/09/12 00:01:24;;;;;;;43.28;30.42;;;21.70;99.90;;;;;;4977730;28;20069;-75
2023/09/12 00:03:50;;;;;;;32.88;27.00;;;21.50;99.90;;;;;;4978356;28;20185;-75
2023/09/12 00:06:15;;;;;;;35.47;26.90;;;21.30;99.90;;;;;;5010508;28;20073;-75
2023/09/12 00:08:41;;;;;;;41.42;29.60;;;21.40;99.90;;;;;;4993703;28;20073;-75
2023/09/12 00:11:12;;;;;;;35.08;25.13;;;21.50;99.90;;;;;;4978219;28;20117;-76
2023/09/12 00:13:39;;;;;;;34.80;25.95;;;21.30;99.90;;;;;;4994121;28;20509;-75
2023/09/12 00:16:09;;;;;;;39.92;29.92;;;21.30;99.90;;;;;;5010587;28;20449;-75
2023/09/12 00:18:35;;;;;;;36.88;27.35;;;21.40;99.90;;;;;;4993999;28;20053;-75
2023/09/12 00:21:01;;;;;;;34.97;26.27;;;21.30;99.90;;;;;;4977795;28;20042;-75
2023/09/12 00:23:27;;;;;;;44.72;30.33;;;21.20;99.90;;;;;;4994026;28;20035;-75
2023/09/12 00:25:53;;;;;;;36.40;27.55;;;21.10;99.90;;;;;;4977756;28;20412;-75
2023/09/12 00:28:21;;;;;;;37.10;28.83;;;21.30;99.90;;;;;;4993784;28;20125;-75
2023/09/12 00:30:47;;;;;;;36.13;25.98;;;21.70;99.90;;;;;;4994079;28;20477;-75
2023/09/12 00:33:13;;;;;;;37.72;28.00;;;21.00;99.90;;;;;;4993935;28;20084;-76
2023/09/12 00:35:39;;;;;;;33.78;26.30;;;21.20;99.90;;;;;;4993797;28;20069;-75
2023/09/12 00:38:06;;;;;;;37.28;27.52;;;21.20;99.90;;;;;;5009866;28;20045;-75
2023/09/12 00:40:32;;;;;;;34.25;24.98;;;21.30;99.90;;;;;;4977088;28;20158;-75
2023/09/12 00:42:58;;;;;;;33.80;25.83;;;21.50;99.90;;;;;;4993262;28;20085;-75
2023/09/12 00:45:24;;;;;;;34.97;26.83;;;21.50;99.90;;;;;;5009998;28;20035;-75
2023/09/12 00:47:51;;;;;;;36.50;26.52;;;21.30;99.90;;;;;;4977185;28;20035;-75
2023/09/12 00:50:17;;;;;;;32.63;26.42;;;21.50;99.90;;;;;;4977269;28;20081;-75
2023/09/12 00:52:44;;;;;;;34.58;26.38;;;21.30;99.90;;;;;;4977438;28;20089;-76
2023/09/12 00:55:10;;;;;;;33.45;24.98;;;21.30;99.90;;;;;;5009890;28;20418;-75
2023/09/12 00:57:36;;;;;;;44.33;28.27;;;21.10;99.90;;;;;;4993300;28;20490;-75
2023/09/12 01:00:12;;;;;;;36.90;26.42;;;21.30;99.90;;;;;;5009944;28;20034;-75
2023/09/12 01:02:39;;;;;;;33.35;26.88;;;21.10;99.90;;;;;;4975973;28;20042;-75
2023/09/12 01:05:07;;;;;;;36.97;26.70;;;21.40;99.90;;;;;;4993458;28;20038;-74
2023/09/12 01:07:33;;;;;;;40.22;30.02;;;21.20;99.90;;;;;;4976358;28;20413;-74
2023/09/12 01:09:58;;;;;;;40.78;29.30;;;21.30;99.90;;;;;;4993207;28;20038;-75
2023/09/12 01:12:24;;;;;;;41.53;29.38;;;21.20;99.90;;;;;;4993002;28;20521;-74
2023/09/12 01:14:50;;;;;;;38.15;28.20;;;21.60;99.90;;;;;;4993023;28;20050;-74
2023/09/12 01:17:15;;;;;;;39.28;27.75;;;20.90;99.90;;;;;;5009188;28;20595;-74
2023/09/12 01:19:41;;;;;;;41.42;28.23;;;20.90;99.90;;;;;;5009246;28;20129;-74
2023/09/12 01:22:12;;;;;;;38.10;26.73;;;20.90;99.90;;;;;;4976660;28;20049;-74
2023/09/12 01:25:15;;;;;;;40.03;28.40;;;21.30;99.90;;;;;;4976775;28;20077;-75
2023/09/12 01:27:46;;;;;;;38.08;26.60;;;21.00;99.90;;;;;;5009253;28;20045;-75
2023/09/12 01:30:16;;;;;;;34.40;25.67;;;20.90;99.90;;;;;;4992756;28;20066;-75
2023/09/12 01:32:43;;;;;;;42.33;28.70;;;20.90;99.90;;;;;;4992833;28;20038;-75
2023/09/12 01:35:09;;;;;;;38.78;25.60;;;20.80;99.90;;;;;;4976799;28;20410;-75
2023/09/12 01:37:34;;;;;;;34.10;26.13;;;21.20;99.90;;;;;;4992488;28;20038;-75
2023/09/12 01:40:01;;;;;;;38.67;27.10;;;20.90;99.90;;;;;;5008885;28;20075;-75
2023/09/12 01:42:41;;;;;;;41.63;29.85;;;21.00;99.90;;;;;;5008712;28;20046;-75
2023/09/12 01:45:10;;;;;;;33.08;25.40;;;21.00;99.90;;;;;;4976293;28;20034;-74
2023/09/12 01:47:36;;;;;;;33.83;25.50;;;21.10;99.90;;;;;;4976054;28;20117;-75
2023/09/12 01:50:05;;;;;;;33.15;25.65;;;21.20;99.90;;;;;;5008801;28;20038;-75
2023/09/12 01:52:31;;;;;;;34.75;25.65;;;20.80;99.90;;;;;;4991940;28;20073;-75
2023/09/12 01:54:58;;;;;;;41.30;26.67;;;20.70;99.90;;;;;;4992280;28;20046;-74
2023/09/12 01:57:24;;;;;;;34.97;25.77;;;20.90;99.90;;;;;;4992116;28;20545;-75
2023/09/12 01:59:49;;;;;;;31.75;24.10;;;20.90;99.90;;;;;;4992584;28;20054;-74
2023/09/12 02:02:18;;;;;;;34.95;25.85;;;20.80;99.90;;;;;;4992065;28;20645;-75
2023/09/12 02:05:07;;;;;;;43.03;30.48;;;20.50;99.90;;;;;;4992286;28;20134;-75
2023/09/12 02:07:36;;;;;;;32.78;24.33;;;20.70;99.90;;;;;;5008407;28;20092;-75
2023/09/12 02:10:01;;;;;;;37.35;26.23;;;20.50;99.90;;;;;;5008597;28;20038;-74
2023/09/12 02:12:27;;;;;;;34.28;26.05;;;20.50;99.90;;;;;;4991994;28;20046;-75
2023/09/12 02:14:52;;;;;;;35.58;27.13;;;20.40;99.90;;;;;;4976076;28;20475;-74
2023/09/12 02:17:18;;;;;;;30.70;23.85;;;20.60;99.90;;;;;;4975582;28;20042;-75
2023/09/12 02:19:47;;;;;;;31.25;23.50;;;20.30;99.90;;;;;;4991422;28;20125;-75
2023/09/12 02:22:13;;;;;;;33.47;26.27;;;21.30;99.90;;;;;;5007519;28;20054;-75
2023/09/12 02:24:38;;;;;;;35.45;25.88;;;20.20;99.90;;;;;;4991463;28;20044;-75
2023/09/12 02:27:04;;;;;;;32.15;24.17;;;20.20;99.90;;;;;;4991556;28;20101;-74
2023/09/12 02:29:32;;;;;;;37.53;26.27;;;20.50;99.90;;;;;;4975568;28;20604;-75
2023/09/12 02:31:58;;;;;;;36.67;26.73;;;20.30;99.90;;;;;;5007990;28;20050;-75
2023/09/12 02:34:23;;;;;;;31.13;24.15;;;20.40;99.90;;;;;;4975523;28;20049;-75
2023/09/12 02:36:49;;;;;;;32.15;24.30;;;20.10;99.90;;;;;;4975181;28;20422;-74
2023/09/12 02:39:15;;;;;;;28.42;23.65;;;20.30;99.90;;;;;;4991607;28;20042;-74
2023/09/12 02:41:41;;;;;;;32.05;24.95;;;20.20;99.90;;;;;;5007642;28;20061;-75
2023/09/12 02:44:07;;;;;;;29.23;23.00;;;20.20;99.90;;;;;;4974954;28;20045;-74
2023/09/12 02:46:33;;;;;;;43.20;27.58;;;20.00;99.90;;;;;;4991002;28;20050;-74
2023/09/12 02:48:58;;;;;;;33.78;25.88;;;20.40;99.90;;;;;;4991062;28;20100;-75
2023/09/12 02:51:25;;;;;;;34.17;25.83;;;20.10;99.90;;;;;;4990801;28;20078;-74
2023/09/12 02:53:51;;;;;;;30.10;24.15;;;20.20;99.90;;;;;;5007785;28;20034;-75
2023/09/12 02:56:17;;;;;;;41.72;27.50;;;20.00;99.90;;;;;;4975117;28;20045;-75
2023/09/12 02:58:46;;;;;;;38.45;27.65;;;19.90;99.90;;;;;;5007481;28;20494;-75
2023/09/12 03:01:18;;;;;;;32.58;25.00;;;20.20;99.90;;;;;;5007665;28;20441;-74
2023/09/12 03:03:47;;;;;;;45.88;24.15;;;19.70;99.90;;;;;;4990698;28;20037;-75
2023/09/12 03:06:14;;;;;;;39.80;24.75;;;19.90;99.90;;;;;;4991055;28;20049;-74
2023/09/12 03:08:44;;;;;;;61.38;23.80;;;19.70;99.90;;;;;;4974855;28;20038;-75
2023/09/12 03:11:10;;;;;;;63.28;25.30;;;20.00;99.90;;;;;;4991056;28;20608;-75
2023/09/12 03:13:37;;;;;;;173.32;33.75;;;19.60;99.90;;;;;;4991121;28;20049;-74
2023/09/12 03:16:03;;;;;;;39.88;22.08;;;19.80;99.90;;;;;;4991261;28;20038;-75
2023/09/12 03:18:29;;;;;;;142.20;29.30;;;19.60;99.90;;;;;;4990816;28;20042;-74
2023/09/12 03:20:54;;;;;;;46.97;22.50;;;19.80;99.90;;;;;;4989673;28;20088;-74
2023/09/12 03:23:20;;;;;;;52.38;23.90;;;20.00;99.90;;;;;;4990477;28;20042;-74
2023/09/12 03:25:46;;;;;;;62.65;24.33;;;19.70;99.90;;;;;;4990764;28;20437;-75
2023/09/12 03:28:11;;;;;;;93.60;25.75;;;19.70;99.90;;;;;;4990410;28;20038;-75
2023/09/12 03:30:38;;;;;;;75.25;23.50;;;19.90;99.90;;;;;;4990958;28;20129;-75
2023/09/12 03:33:04;;;;;;;147.75;29.20;;;19.60;99.90;;;;;;4991815;28;20046;-74
2023/09/12 03:35:31;;;;;;;30.95;21.70;;;19.70;99.90;;;;;;4991141;28;20494;-75
2023/09/12 03:37:57;;;;;;;58.60;23.77;;;19.80;99.90;;;;;;4990578;28;20039;-75
2023/09/12 03:40:23;;;;;;;32.65;22.17;;;20.00;99.90;;;;;;4974915;28;20148;-75
2023/09/12 03:42:48;;;;;;;73.05;23.08;;;19.80;99.90;;;;;;4990776;28;20585;-74
2023/09/12 03:45:14;;;;;;;48.33;20.10;;;19.70;99.90;;;;;;4990852;28;20041;-75
2023/09/12 03:47:40;;;;;;;84.45;26.58;;;19.50;99.90;;;;;;4974393;28;20125;-74
2023/09/12 03:50:06;;;;;;;77.47;25.65;;;19.90;99.90;;;;;;4990589;28;20126;-75
2023/09/12 03:52:31;;;;;;;46.47;24.38;;;19.80;99.90;;;;;;4990474;28;20042;-74
2023/09/12 03:54:57;;;;;;;41.40;24.42;;;19.60;99.90;;;;;;4990802;28;20042;-75
2023/09/12 03:57:23;;;;;;;36.70;22.25;;;19.50;99.90;;;;;;4974219;28;20443;-75
2023/09/12 03:59:48;;;;;;;35.67;23.25;;;20.30;99.90;;;;;;4990689;28;20043;-74
2023/09/12 04:02:14;;;;;;;92.55;30.02;;;19.30;99.90;;;;;;4990413;28;20049;-74
2023/09/12 04:04:39;;;;;;;38.63;24.98;;;19.50;99.90;;;;;;4990589;28;20042;-74
2023/09/12 04:07:05;;;;;;;51.38;24.58;;;19.60;99.90;;;;;;4990626;28;20080;-75
2023/09/12 04:09:31;;;;;;;30.42;22.58;;;19.80;99.90;;;;;;4990566;28;20049;-75
2023/09/12 04:11:57;;;;;;;28.85;22.80;;;19.60;99.90;;;;;;4973852;28;20042;-75
2023/09/12 04:14:22;;;;;;;33.85;25.17;;;20.20;99.90;;;;;;4974269;28;20516;-74
2023/09/12 04:16:48;;;;;;;44.08;27.40;;;19.60;99.90;;;;;;4976981;28;20658;-74
2023/09/12 04:19:14;;;;;;;42.28;26.52;;;19.70;99.90;;;;;;4994204;28;20409;-74
2023/09/12 04:21:40;;;;;;;42.70;27.63;;;19.60;99.90;;;;;;4993937;28;20042;-75
2023/09/12 04:24:07;;;;;;;43.25;28.75;;;19.60;99.90;;;;;;4994160;28;20188;-74
2023/09/12 04:26:32;;;;;;;34.60;26.80;;;19.70;99.90;;;;;;4993645;28;20042;-75
2023/09/12 04:28:58;;;;;;;66.72;32.53;;;20.10;99.90;;;;;;4993981;28;20049;-74
2023/09/12 04:31:24;;;;;;;39.60;25.92;;;20.40;99.90;;;;;;4993968;28;20117;-75
2023/09/12 04:33:53;;;;;;;47.65;30.20;;;19.90;99.90;;;;;;4994084;28;20464;-74
2023/09/12 04:36:19;;;;;;;44.20;30.67;;;19.90;99.90;;;;;;4993674;28;20035;-75
2023/09/12 04:38:45;;;;;;;38.63;27.55;;;19.90;99.90;;;;;;4976112;28;20112;-74
2023/09/12 04:41:16;;;;;;;39.42;28.02;;;20.10;99.90;;;;;;4992583;28;20505;-74
2023/09/12 04:43:44;;;;;;;47.40;30.27;;;19.70;99.90;;;;;;4993128;28;20505;-75
2023/09/12 04:46:09;;;;;;;114.13;40.22;;;20.50;99.90;;;;;;4993603;28;20038;-75
2023/09/12 04:48:35;;;;;;;60.60;30.75;;;19.70;99.90;;;;;;4993217;28;20405;-75
2023/09/12 04:51:01;;;;;;;60.15;31.30;;;19.70;99.90;;;;;;4977113;28;20034;-75
2023/09/12 04:53:26;;;;;;;68.03;31.80;;;19.90;99.90;;;;;;4993775;28;20042;-74
2023/09/12 04:55:53;;;;;;;64.88;32.58;;;19.60;99.90;;;;;;4993659;28;20045;-75
2023/09/12 04:58:19;;;;;;;46.88;29.95;;;19.80;99.90;;;;;;4977182;28;20188;-75
2023/09/12 05:00:45;;;;;;;42.65;28.58;;;20.10;99.90;;;;;;4993367;28;20117;-74
2023/09/12 05:03:11;;;;;;;60.90;35.53;;;19.70;99.90;;;;;;4992880;28;20082;-75
2023/09/12 05:05:36;;;;;;;55.47;34.25;;;20.00;99.90;;;;;;4993223;28;20070;-74
2023/09/12 05:08:03;;;;;;;54.10;31.75;;;19.60;99.90;;;;;;4993041;28;20084;-75
2023/09/12 05:10:29;;;;;;;79.75;38.63;;;20.00;99.90;;;;;;4976734;28;20034;-75
2023/09/12 05:12:55;;;;;;;44.80;30.27;;;20.00;99.90;;;;;;4994713;28;20044;-74
2023/09/12 05:15:21;;;;;;;45.53;28.13;;;19.50;99.90;;;;;;5000494;28;20116;-75
2023/09/12 05:17:46;;;;;;;55.95;32.80;;;19.50;99.90;;;;;;4998330;28;20441;-74
2023/09/12 05:20:12;;;;;;;42.47;28.60;;;19.50;99.90;;;;;;5016531;28;20041;-75
2023/09/12 05:22:37;;;;;;;39.30;27.73;;;21.20;99.90;;;;;;4992485;28;20053;-74
2023/09/12 05:25:03;;;;;;;40.17;28.40;;;20.20;99.90;;;;;;5008866;28;20517;-74
2023/09/12 05:27:29;;;;;;;42.28;29.58;;;19.90;99.90;;;;;;5024249;28;20402;-74
2023/09/12 05:29:55;;;;;;;48.15;32.47;;;19.70;99.90;;;;;;4976501;28;20030;-75
2023/09/12 05:32:20;;;;;;;44.88;30.75;;;19.60;99.90;;;;;;4991382;28;20162;-74
2023/09/12 05:34:49;;;;;;;45.65;30.35;;;19.80;99.90;;;;;;4992084;28;20065;-74
2023/09/12 05:37:15;;;;;;;41.55;27.58;;;19.60;99.90;;;;;;4991899;28;20125;-75
2023/09/12 05:39:40;;;;;;;45.85;31.50;;;20.90;99.90;;;;;;5016244;28;20174;-74
2023/09/12 05:42:06;;;;;;;43.50;29.67;;;19.80;99.90;;;;;;5012484;28;20041;-75
2023/09/12 05:44:32;;;;;;;42.45;30.38;;;19.50;99.90;;;;;;5011396;28;20128;-74
2023/09/12 05:46:58;;;;;;;41.60;28.90;;;19.90;99.90;;;;;;4993679;28;20042;-74
2023/09/12 05:49:23;;;;;;;44.90;29.08;;;20.30;99.90;;;;;;4978431;28;20038;-74
2023/09/12 05:51:49;;;;;;;49.22;33.05;;;19.60;99.90;;;;;;5012997;28;20031;-74
2023/09/12 05:54:15;;;;;;;49.78;32.35;;;20.20;99.90;;;;;;4991638;28;20418;-74
2023/09/12 05:56:41;;;;;;;93.60;38.55;;;19.90;99.90;;;;;;4975074;28;20046;-75
2023/09/12 05:59:06;;;;;;;83.57;36.20;;;19.90;99.90;;;;;;4975695;28;20116;-74
2023/09/12 06:01:32;;;;;;;53.33;32.30;;;20.00;99.90;;;;;;4991888;28;20069;-74
2023/09/12 06:03:58;;;;;;;88.32;37.13;;;20.20;99.90;;;;;;4976194;28;20045;-75
2023/09/12 06:06:23;;;;;;;275.45;54.50;;;20.00;99.90;;;;;;4991195;28;20375;-75
2023/09/12 06:08:49;;;;;;;161.30;42.55;;;19.80;99.90;;;;;;4985432;28;20035;-75
2023/09/12 06:11:15;;;;;;;131.55;39.42;;;20.00;99.90;;;;;;5003926;28;20040;-74
2023/09/12 06:13:40;;;;;;;123.40;38.00;;;20.00;99.90;;;;;;5021386;28;20113;-75
2023/09/12 06:16:06;;;;;;;61.20;32.65;;;20.20;99.90;;;;;;5004680;28;20041;-75
2023/09/12 06:18:34;;;;;;;73.45;34.92;;;20.10;99.90;;;;;;5004717;28;20457;-75
2023/09/12 06:21:03;;;;;;;50.85;31.20;;;19.70;99.90;;;;;;4988270;28;20053;-75
2023/09/12 06:23:30;;;;;;;131.90;43.03;;;19.80;99.90;;;;;;4985129;28;20043;-75
2023/09/12 06:25:55;;;;;;;61.83;33.83;;;20.70;99.90;;;;;;5018356;28;20533;-76
2023/09/12 06:28:30;;;;;;;162.32;45.40;;;20.50;99.90;;;;;;5004535;28;20174;-75
2023/09/12 06:30:56;;;;;;;87.43;39.00;;;20.10;99.90;;;;;;4972279;28;20077;-75
2023/09/12 06:33:22;;;;;;;50.80;33.55;;;20.30;99.90;;;;;;4988326;28;20509;-75
2023/09/12 06:35:50;;;;;;;71.80;36.83;;;20.40;99.90;;;;;;4988430;28;20038;-75
2023/09/12 06:38:16;;;;;;;64.43;35.65;;;20.40;99.90;;;;;;4988232;28;20410;-75
2023/09/12 06:40:43;;;;;;;68.47;37.47;;;20.40;99.90;;;;;;4986235;28;20046;-75
2023/09/12 06:43:08;;;;;;;70.20;39.58;;;19.80;99.90;;;;;;5004256;28;20513;-75
2023/09/12 06:45:37;;;;;;;73.15;37.50;;;20.30;99.90;;;;;;4987975;28;20046;-75
2023/09/12 06:48:03;;;;;;;60.45;34.17;;;20.50;99.90;;;;;;4971737;28;20041;-75
2023/09/12 06:50:29;;;;;;;59.92;37.30;;;20.60;99.90;;;;;;5020017;28;20034;-75
2023/09/12 06:52:55;;;;;;;62.97;38.28;;;20.50;99.90;;;;;;5003820;28;20046;-74
2023/09/12 06:55:20;;;;;;;78.22;40.90;;;20.50;99.90;;;;;;5020541;28;20049;-75
2023/09/12 06:57:46;;;;;;;65.38;39.83;;;20.50;99.90;;;;;;4970236;28;20038;-75
2023/09/12 07:00:13;;;;;;;92.53;44.13;;;20.50;99.90;;;;;;5015764;28;20046;-76
2023/09/12 07:02:39;;;;;;;98.25;46.35;;;20.40;99.90;;;;;;4986220;28;20053;-75
2023/09/12 07:05:05;;;;;;;95.63;45.72;;;20.50;99.90;;;;;;4993928;28;20034;-76
2023/09/12 07:07:31;;;;;;;67.10;41.30;;;20.50;99.90;;;;;;4988333;28;20034;-75
2023/09/12 07:09:57;;;;;;;74.72;40.35;;;20.60;99.90;;;;;;4996231;28;20038;-75
2023/09/12 07:12:22;;;;;;;77.68;42.65;;;20.50;99.90;;;;;;5003946;28;20402;-75
2023/09/12 07:14:50;;;;;;;96.03;46.45;;;21.00;99.90;;;;;;4987340;28;20068;-75
2023/09/12 07:17:17;;;;;;;81.55;44.92;;;20.70;99.90;;;;;;4992324;28;20050;-75
2023/09/12 07:19:43;;;;;;;74.80;42.65;;;20.90;99.90;;;;;;4974929;28;20034;-75
2023/09/12 07:22:08;;;;;;;71.72;38.22;;;21.80;99.90;;;;;;4976239;28;20049;-75
2023/09/12 07:24:34;;;;;;;72.72;41.28;;;21.70;99.90;;;;;;4986794;28;20031;-75
2023/09/12 07:27:00;;;;;;;72.25;40.25;;;20.90;99.90;;;;;;4997541;28;20852;-75
2023/09/12 07:29:26;;;;;;;75.45;41.45;;;21.20;99.90;;;;;;4970735;28;20053;-75
2023/09/12 07:31:54;;;;;;;76.95;43.05;;;21.40;99.90;;;;;;4988833;28;20045;-75
2023/09/12 07:34:24;;;;;;;70.45;42.33;;;20.80;99.90;;;;;;4995643;28;20039;-75
2023/09/12 07:36:51;;;;;;;61.00;36.28;;;20.20;99.90;;;;;;4988549;28;20043;-75
2023/09/12 07:39:17;;;;;;;67.30;39.45;;;20.80;99.90;;;;;;5002231;28;20045;-75
2023/09/12 07:41:43;;;;;;;72.65;41.75;;;20.50;99.90;;;;;;4990060;28;20050;-75
2023/09/12 07:44:11;;;;;;;74.80;42.72;;;21.00;99.90;;;;;;4990330;28;20047;-74
2023/09/12 07:46:37;;;;;;;85.80;44.92;;;22.00;99.90;;;;;;4993240;28;20029;-75
2023/09/12 07:49:03;;;;;;;56.90;36.92;;;21.00;99.90;;;;;;4992862;28;20076;-74
2023/09/12 07:51:28;;;;;;;84.03;45.22;;;20.90;99.90;;;;;;4988942;28;20066;-75
2023/09/12 07:53:54;;;;;;;67.03;40.40;;;21.00;99.90;;;;;;4996729;28;20121;-74
2023/09/12 07:56:20;;;;;;;71.05;40.72;;;21.20;99.90;;;;;;4991349;28;20545;-74
2023/09/12 07:58:45;;;;;;;68.22;38.83;;;21.10;99.90;;;;;;4997475;28;20049;-74
2023/09/12 08:01:11;;;;;;;67.20;41.80;;;20.70;99.90;;;;;;5002591;28;20038;-73
2023/09/12 08:03:38;;;;;;;70.28;41.47;;;21.00;99.90;;;;;;4996941;28;20049;-74
2023/09/12 08:06:04;;;;;;;68.82;40.97;;;21.70;99.90;;;;;;5013416;28;20088;-73
2023/09/12 08:08:30;;;;;;;84.30;45.72;;;21.70;99.90;;;;;;4984773;28;20066;-75
2023/09/12 08:10:57;;;;;;;70.47;41.70;;;21.50;99.90;;;;;;4990244;28;20363;-75
2023/09/12 08:13:25;;;;;;;66.30;39.28;;;21.30;99.90;;;;;;4994980;28;20049;-74
2023/09/12 08:15:51;;;;;;;73.95;39.50;;;21.70;99.90;;;;;;5021159;28;20050;-74
2023/09/12 08:18:17;;;;;;;66.88;39.38;;;22.00;99.90;;;;;;5024683;28;20044;-74
2023/09/12 08:20:43;;;;;;;78.60;44.47;;;21.60;99.90;;;;;;5008955;28;20125;-74
2023/09/12 08:23:09;;;;;;;61.75;37.72;;;21.60;99.90;;;;;;4997079;28;20045;-74
2023/09/12 08:25:34;;;;;;;53.90;36.25;;;21.60;99.90;;;;;;4996739;28;20041;-75
2023/09/12 08:28:00;;;;;;;60.95;38.63;;;21.80;99.90;;;;;;5007396;28;20038;-74
2023/09/12 08:30:28;;;;;;;71.63;41.15;;;21.50;99.90;;;;;;5012760;28;20038;-74
2023/09/12 08:32:53;;;;;;;68.97;39.75;;;22.10;99.90;;;;;;5013216;28;20073;-75
2023/09/12 08:35:19;;;;;;;83.03;45.95;;;21.80;99.90;;;;;;5013079;28;20041;-75
2023/09/12 08:37:44;;;;;;;82.03;45.00;;;22.00;99.90;;;;;;5017155;28;20042;-74
2023/09/12 08:40:11;;;;;;;77.43;44.30;;;21.90;99.90;;;;;;5000375;28;20038;-74
2023/09/12 08:42:40;;;;;;;83.88;45.35;;;21.90;99.90;;;;;;5013449;28;20034;-74
2023/09/12 08:45:12;;;;;;;77.28;44.13;;;21.80;99.90;;;;;;4997986;28;20041;-74
2023/09/12 08:47:40;;;;;;;73.60;42.72;;;21.70;99.90;;;;;;5000896;28;20042;-74
2023/09/12 08:50:12;;;;;;;74.60;43.00;;;22.00;99.90;;;;;;4994298;28;20817;-75
2023/09/12 08:52:37;;;;;;;65.53;38.33;;;22.10;99.90;;;;;;4992699;28;20084;-74
2023/09/12 08:55:04;;;;;;;77.13;42.70;;;22.50;99.90;;;;;;4981161;28;20062;-74
2023/09/12 08:57:32;;;;;;;70.72;39.35;;;22.40;99.90;;;;;;4994071;28;20049;-75
2023/09/12 09:00:05;;;;;;;70.25;41.40;;;22.60;99.90;;;;;;4993734;28;20081;-74
2023/09/12 09:02:32;;;;;;;80.80;44.67;;;22.30;99.90;;;;;;4976142;28;20048;-73
2023/09/12 09:04:59;;;;;;;55.75;35.85;;;22.50;99.90;;;;;;4999822;28;20638;-74
2023/09/12 09:07:26;;;;;;;67.55;39.03;;;23.10;99.90;;;;;;5009081;28;20125;-73
2023/09/12 09:09:53;;;;;;;75.68;41.67;;;22.10;99.90;;;;;;4992720;28;20046;-76
2023/09/12 09:12:19;;;;;;;66.38;39.80;;;22.80;99.90;;;;;;5009636;28;20053;-77
2023/09/12 09:14:45;;;;;;;70.18;42.15;;;23.10;99.90;;;;;;5014170;28;20049;-77
2023/09/12 09:17:12;;;;;;;60.88;36.85;;;23.00;99.90;;;;;;5005124;28;20053;-77
2023/09/12 09:19:44;;;;;;;64.95;37.67;;;23.30;99.90;;;;;;4997729;28;20042;-77
2023/09/12 09:22:09;;;;;;;56.13;37.00;;;22.90;99.90;;;;;;5013554;28;20042;-77
2023/09/12 09:24:35;;;;;;;58.65;36.33;;;23.60;99.90;;;;;;4998159;28;20069;-77
2023/09/12 09:27:01;;;;;;;59.63;37.30;;;23.00;99.90;;;;;;5013777;28;20042;-77
2023/09/12 09:29:32;;;;;;;55.47;35.03;;;22.90;99.90;;;;;;5001645;28;20522;-77
2023/09/12 09:32:00;;;;;;;57.97;36.40;;;23.00;99.90;;;;;;5024148;28;20570;-77
2023/09/12 09:34:29;;;;;;;55.05;34.85;;;23.30;99.90;;;;;;5019922;28;20124;-77
2023/09/12 09:36:56;;;;;;;55.63;36.10;;;23.20;99.90;;;;;;4987401;28;21071;-77
2023/09/12 09:39:30;;;;;;;54.15;34.53;;;22.80;99.90;;;;;;4987993;28;20400;-77
2023/09/12 09:41:57;;;;;;;60.80;35.85;;;23.00;99.90;;;;;;5018318;28;20037;-77
2023/09/12 09:44:26;;;;;;;53.30;33.75;;;23.10;99.90;;;;;;5000811;28;20033;-77
2023/09/12 09:47:00;;;;;;;48.92;33.05;;;23.40;99.90;;;;;;5003807;28;20038;-77
2023/09/12 09:49:26;;;;;;;47.22;33.42;;;23.20;99.90;;;;;;4993773;28;20050;-75
2023/09/12 09:51:55;;;;;;;52.70;32.40;;;23.10;99.90;;;;;;5004366;28;20053;-75
2023/09/12 09:54:24;;;;;;;51.88;32.28;;;23.40;99.90;;;;;;5020492;28;20050;-75
2023/09/12 09:56:55;;;;;;;47.40;31.35;;;23.70;99.90;;;;;;5026148;28;20042;-75
2023/09/12 09:59:23;;;;;;;52.38;32.38;;;23.90;99.90;;;;;;5025492;28;20042;-75
2023/09/12 10:01:51;;;;;;;44.38;29.73;;;23.90;99.90;;;;;;5024884;28;20065;-75
2023/09/12 10:04:18;;;;;;;49.90;31.05;;;24.20;99.90;;;;;;5025001;28;20191;-76
2023/09/12 10:06:45;;;;;;;46.40;30.35;;;24.00;99.90;;;;;;5024219;28;20489;-74
2023/09/12 10:09:15;;;;;;;41.30;27.80;;;24.20;99.90;;;;;;5008475;28;20155;-75
2023/09/12 10:11:43;;;;;;;40.22;27.35;;;24.10;99.90;;;;;;5008570;28;20046;-75
2023/09/12 10:14:11;;;;;;;34.17;22.92;;;24.40;99.90;;;;;;5024628;28;20466;-75
2023/09/12 10:16:47;;;;;;;29.88;20.05;;;24.30;99.90;;;;;;5007921;28;20080;-75
2023/09/12 10:19:19;;;;;;;24.38;16.27;;;24.60;99.90;;;;;;5008202;28;20042;-76
2023/09/12 10:21:56;;;;;;;27.27;18.05;;;24.50;99.90;;;;;;5008007;28;20046;-76
2023/09/12 10:24:24;;;;;;;26.35;18.45;;;24.50;99.90;;;;;;5007997;28;20057;-76
2023/09/12 10:26:51;;;;;;;23.63;17.33;;;24.80;99.90;;;;;;4991578;28;20406;-75
2023/09/12 10:29:17;;;;;;;27.27;15.48;;;24.90;99.90;;;;;;4988403;28;20042;-75
2023/09/12 10:31:43;;;;;;;25.50;15.05;;;24.80;99.90;;;;;;4987053;28;20037;-75
2023/09/12 10:34:12;;;;;;;21.77;15.27;;;25.00;99.90;;;;;;4988188;28;20034;-75
2023/09/12 10:36:42;;;;;;;27.25;18.02;;;24.70;99.90;;;;;;4987733;28;20449;-75
2023/09/12 10:39:10;;;;;;;25.35;16.50;;;24.80;99.90;;;;;;4971936;28;20173;-75
2023/09/12 10:41:39;;;;;;;26.25;16.58;;;24.80;99.90;;;;;;4988012;28;20141;-76
2023/09/12 10:44:26;;;;;;;21.77;16.13;;;24.80;99.90;;;;;;4971250;28;20034;-75
2023/09/12 10:46:54;;;;;;;25.40;16.85;;;25.00;99.90;;;;;;4987495;28;20038;-76
2023/09/12 10:49:20;;;;;;;24.40;17.25;;;25.00;99.90;;;;;;5003844;28;20124;-75
2023/09/12 10:51:46;;;;;;;25.40;17.88;;;25.00;99.90;;;;;;4971512;28;20421;-76
2023/09/12 10:54:23;;;;;;;27.88;17.40;;;25.40;99.90;;;;;;4988143;28;20403;-75
2023/09/12 10:57:11;;;;;;;26.63;17.98;;;25.30;99.90;;;;;;4971012;28;20061;-75
2023/09/12 10:59:36;;;;;;;23.90;14.38;;;25.50;99.90;;;;;;4971761;28;20502;-75
2023/09/12 11:02:31;;;;;;;24.23;15.25;;;25.70;99.90;;;;;;4987182;28;20049;-76
2023/09/12 11:04:58;;;;;;;25.13;15.23;;;25.60;99.90;;;;;;4971514;28;20604;-75
2023/09/12 11:07:40;;;;;;;22.08;15.25;;;25.50;99.90;;;;;;4987466;28;20455;-76
2023/09/12 11:10:16;;;;;;;18.60;12.67;;;25.30;99.90;;;;;;4971255;28;20049;-76
2023/09/12 11:12:46;;;;;;;17.75;12.50;;;25.40;99.90;;;;;;4972158;28;20277;-76
2023/09/12 11:15:13;;;;;;;25.73;13.27;;;25.70;99.90;;;;;;5006936;28;20129;-75
2023/09/12 11:17:47;;;;;;;21.80;13.52;;;25.70;99.90;;;;;;5007464;28;20045;-77
2023/09/12 11:20:14;;;;;;;19.65;14.70;;;25.70;99.90;;;;;;5001224;28;20077;-77
2023/09/12 11:22:47;;;;;;;23.67;16.02;;;25.90;99.90;;;;;;5016445;28;20409;-75
2023/09/12 11:25:22;;;;;;;;;;;25.80;99.90;;;;;;4999375;28;20117;-76
2023/09/12 11:27:51;;;;;;;22.88;14.90;;;26.00;99.90;;;;;;5000510;28;19956;-78
2023/09/12 11:30:25;;;;;;;28.45;15.25;;;26.10;99.90;;;;;;5000050;28;20042;-76
2023/09/12 11:32:52;;;;;;;20.80;12.98;;;26.00;99.90;;;;;;5017997;28;20440;-77
2023/09/12 11:35:26;;;;;;;15.88;12.00;;;25.70;99.90;;;;;;5006849;28;20043;-76
2023/09/12 11:37:57;;;;;;;18.02;10.45;;;25.90;99.90;;;;;;4974188;28;20092;-77
2023/09/12 11:40:42;;;;;;;12.05;7.95;;;25.80;99.90;;;;;;5004080;28;20135;-78
2023/09/12 11:43:19;;;;;;;13.30;7.22;;;25.80;99.90;;;;;;4987468;28;20177;-77
2023/09/12 11:45:45;;;;;;;14.18;9.68;;;25.60;99.90;;;;;;4989713;28;20039;-77
2023/09/12 11:48:11;;;;;;;12.82;10.13;;;25.70;99.90;;;;;;5003052;28;20053;-77
2023/09/12 11:50:41;;;;;;;20.88;11.43;;;25.40;99.90;;;;;;5013744;28;20034;-77
2023/09/12 11:53:11;;;;;;;17.58;12.25;;;25.30;99.90;;;;;;5010176;28;20057;-76
2023/09/12 11:55:43;;;;;;;15.52;11.52;;;25.30;99.90;;;;;;5010567;28;20050;-77
2023/09/12 11:58:11;;;;;;;17.30;11.40;;;25.50;99.90;;;;;;4998844;28;20498;-77
2023/09/12 12:00:37;;;;;;;15.40;10.73;;;25.50;99.90;;;;;;5003967;28;20042;-76
2023/09/12 12:03:04;;;;;;;16.60;11.25;;;25.50;99.90;;;;;;4990516;28;20453;-76
2023/09/12 12:05:30;;;;;;;20.65;12.38;;;25.30;99.90;;;;;;5014788;28;20034;-76
2023/09/12 12:07:58;;;;;;;16.40;11.88;;;25.10;99.90;;;;;;4989870;28;20038;-77
2023/09/12 12:10:24;;;;;;;16.60;10.88;;;25.20;99.90;;;;;;5006201;28;20053;-76
2023/09/12 12:12:53;;;;;;;19.67;12.10;;;25.50;99.90;;;;;;4989920;28;20049;-77
2023/09/12 12:15:19;;;;;;;16.52;11.65;;;25.60;99.90;;;;;;4990065;28;20040;-77
2023/09/12 12:17:45;;;;;;;18.17;12.60;;;25.50;99.90;;;;;;5014225;28;20125;-76
2023/09/12 12:20:11;;;;;;;14.63;10.20;;;25.40;99.90;;;;;;4995356;28;20081;-77
2023/09/12 12:22:40;;;;;;;12.90;9.77;;;25.10;99.90;;;;;;4994153;28;20047;-77
2023/09/12 12:25:11;;;;;;;12.55;8.60;;;25.20;99.90;;;;;;4991974;28;20030;-77
2023/09/12 12:27:40;;;;;;;13.20;8.38;;;25.00;99.90;;;;;;4989271;28;20038;-77
2023/09/12 12:30:10;;;;;;;12.23;7.43;;;25.10;99.90;;;;;;4992058;28;20053;-77